sensor_id;sensor_type;location;lat;lon;timestamp;P1;durP1;ratioP1;P2;durP2;ratioP2
75760;SDS011;64373;46.136;8.830;2023-10-31T00:00:37;0.95;;;0.40;;
75760;SDS011;64373;46.136;8.830;2023-10-31T00:03:02;0.30;;;0.30;;
75760;SDS011;64373;46.136;8.830;2023-10-31T00:05:28;0.80;;;0.30;;
75760;SDS011;64373;46.136;8.830;2023-10-31T00:07:53;2.25;;;0.50;;
75760;SDS011;64373;46.136;8.830;2023-10-31T00:10:19;0.47;;;0.30;;
75760;SDS011;64373;46.136;8.830;2023-10-31T00:12:44;0.20;;;0.20;;
75760;SDS011;64373;46.136;8.830;2023-10-31T00:15:10;2.15;;;0.40;;
75760;SDS011;64373;46.136;8.830;2023-10-31T00:17:35;0.47;;;0.20;;
75760;SDS011;64373;46.136;8.830;2023-10-31T00:20:01;1.73;;;0.45;;
75760;SDS011;64373;46.136;8.830;2023-10-31T00:22:26;0.40;;;0.30;;
75760;SDS011;64373;46.136;8.830;2023-10-31T00:24:53;0.20;;;0.20;;
75760;SDS011;64373;46.136;8.830;2023-10-31T00:27:18;0.30;;;0.20;;
75760;SDS011;64373;46.136;8.830;2023-10-31T00:29:44;0.68;;;0.35;;
75760;SDS011;64373;46.136;8.830;2023-10-31T00:32:09;0.77;;;0.35;;
75760;SDS011;64373;46.136;8.830;2023-10-31T00:34:34;0.43;;;0.30;;
75760;SDS011;64373;46.136;8.830;2023-10-31T00:37:01;0.40;;;0.30;;
75760;SDS011;64373;46.136;8.830;2023-10-31T00:39:26;0.40;;;0.35;;
75760;SDS011;64373;46.136;8.830;2023-10-31T00:41:51;0.55;;;0.30;;
75760;SDS011;64373;46.136;8.830;2023-10-31T00:44:17;1.25;;;0.40;;
75760;SDS011;64373;46.136;8.830;2023-10-31T00:46:43;1.17;;;0.40;;
75760;SDS011;64373;46.136;8.830;2023-10-31T00:49:08;1.15;;;0.50;;
75760;SDS011;64373;46.136;8.830;2023-10-31T00:51:34;1.33;;;0.40;;
75760;SDS011;64373;46.136;8.830;2023-10-31T00:53:59;0.35;;;0.20;;
75760;SDS011;64373;46.136;8.830;2023-10-31T00:56:25;0.03;;;0.03;;
75760;SDS011;64373;46.136;8.830;2023-10-31T00:58:50;1.17;;;0.30;;
75760;SDS011;64373;46.136;8.830;2023-10-31T01:01:16;1.48;;;0.20;;
75760;SDS011;64373;46.136;8.830;2023-10-31T01:03:41;1.98;;;0.20;;
75760;SDS011;64373;46.136;8.830;2023-10-31T01:06:07;0.85;;;0.50;;
75760;SDS011;64373;46.136;8.830;2023-10-31T01:08:33;1.23;;;0.13;;
75760;SDS011;64373;46.136;8.830;2023-10-31T01:10:59;0.40;;;0.20;;
75760;SDS011;64373;46.136;8.830;2023-10-31T01:13:25;0.40;;;0.32;;
75760;SDS011;64373;46.136;8.830;2023-10-31T01:15:50;0.28;;;0.10;;
75760;SDS011;64373;46.136;8.830;2023-10-31T01:18:16;0.65;;;0.20;;
75760;SDS011;64373;46.136;8.830;2023-10-31T01:20:41;0.20;;;0.00;;
75760;SDS011;64373;46.136;8.830;2023-10-31T01:23:07;0.45;;;0.20;;
75760;SDS011;64373;46.136;8.830;2023-10-31T01:25:32;0.17;;;0.10;;
75760;SDS011;64373;46.136;8.830;2023-10-31T01:27:58;2.70;;;0.55;;
75760;SDS011;64373;46.136;8.830;2023-10-31T01:30:23;0.10;;;0.00;;
75760;SDS011;64373;46.136;8.830;2023-10-31T01:32:49;0.10;;;0.00;;
75760;SDS011;64373;46.136;8.830;2023-10-31T01:35:14;1.35;;;0.00;;
75760;SDS011;64373;46.136;8.830;2023-10-31T01:37:40;0.43;;;0.10;;
75760;SDS011;64373;46.136;8.830;2023-10-31T01:40:06;0.00;;;0.00;;
75760;SDS011;64373;46.136;8.830;2023-10-31T01:42:32;0.00;;;0.00;;
75760;SDS011;64373;46.136;8.830;2023-10-31T01:44:58;0.28;;;0.15;;
75760;SDS011;64373;46.136;8.830;2023-10-31T01:47:23;0.00;;;0.00;;
75760;SDS011;64373;46.136;8.830;2023-10-31T01:49:49;0.00;;;0.00;;
75760;SDS011;64373;46.136;8.830;2023-10-31T01:52:16;0.55;;;0.00;;
75760;SDS011;64373;46.136;8.830;2023-10-31T01:54:42;0.00;;;0.00;;
75760;SDS011;64373;46.136;8.830;2023-10-31T01:57:09;1.30;;;0.08;;
75760;SDS011;64373;46.136;8.830;2023-10-31T01:59:34;0.05;;;0.00;;
75760;SDS011;64373;46.136;8.830;2023-10-31T02:02:00;0.57;;;0.10;;
75760;SDS011;64373;46.136;8.830;2023-10-31T02:04:26;0.52;;;0.03;;
75760;SDS011;64373;46.136;8.830;2023-10-31T02:06:51;1.38;;;0.20;;
75760;SDS011;64373;46.136;8.830;2023-10-31T02:09:17;0.03;;;0.00;;
75760;SDS011;64373;46.136;8.830;2023-10-31T02:11:43;0.00;;;0.00;;
75760;SDS011;64373;46.136;8.830;2023-10-31T02:14:08;0.00;;;0.00;;
75760;SDS011;64373;46.136;8.830;2023-10-31T02:16:34;0.65;;;0.00;;
75760;SDS011;64373;46.136;8.830;2023-10-31T02:18:59;0.40;;;0.00;;
75760;SDS011;64373;46.136;8.830;2023-10-31T02:21:25;0.10;;;0.00;;
75760;SDS011;64373;46.136;8.830;2023-10-31T02:24:01;0.22;;;0.05;;
75760;SDS011;64373;46.136;8.830;2023-10-31T02:26:31;1.25;;;0.08;;
75760;SDS011;64373;46.136;8.830;2023-10-31T02:28:57;0.55;;;0.00;;
75760;SDS011;64373;46.136;8.830;2023-10-31T02:31:23;0.10;;;0.03;;
75760;SDS011;64373;46.136;8.830;2023-10-31T02:33:49;0.63;;;0.00;;
75760;SDS011;64373;46.136;8.830;2023-10-31T02:36:14;0.10;;;0.00;;
75760;SDS011;64373;46.136;8.830;2023-10-31T02:38:40;0.00;;;0.00;;
75760;SDS011;64373;46.136;8.830;2023-10-31T02:41:05;0.15;;;0.00;;
75760;SDS011;64373;46.136;8.830;2023-10-31T02:43:31;0.40;;;0.08;;
75760;SDS011;64373;46.136;8.830;2023-10-31T02:45:56;0.00;;;0.00;;
75760;SDS011;64373;46.136;8.830;2023-10-31T02:48:22;0.98;;;0.10;;
75760;SDS011;64373;46.136;8.830;2023-10-31T02:50:50;0.10;;;0.00;;
75760;SDS011;64373;46.136;8.830;2023-10-31T02:53:17;3.47;;;0.20;;
75760;SDS011;64373;46.136;8.830;2023-10-31T02:55:43;0.28;;;0.10;;
75760;SDS011;64373;46.136;8.830;2023-10-31T02:58:08;0.68;;;0.10;;
75760;SDS011;64373;46.136;8.830;2023-10-31T03:00:34;0.52;;;0.00;;
75760;SDS011;64373;46.136;8.830;2023-10-31T03:02:59;0.22;;;0.00;;
75760;SDS011;64373;46.136;8.830;2023-10-31T03:05:25;0.20;;;0.00;;
75760;SDS011;64373;46.136;8.830;2023-10-31T03:07:50;0.10;;;0.10;;
75760;SDS011;64373;46.136;8.830;2023-10-31T03:10:17;0.00;;;0.00;;
75760;SDS011;64373;46.136;8.830;2023-10-31T03:12:44;0.45;;;0.00;;
75760;SDS011;64373;46.136;8.830;2023-10-31T03:15:10;0.80;;;0.05;;
75760;SDS011;64373;46.136;8.830;2023-10-31T03:17:35;0.32;;;0.00;;
75760;SDS011;64373;46.136;8.830;2023-10-31T03:20:01;0.20;;;0.20;;
75760;SDS011;64373;46.136;8.830;2023-10-31T03:22:26;1.27;;;0.25;;
75760;SDS011;64373;46.136;8.830;2023-10-31T03:24:52;0.00;;;0.00;;
75760;SDS011;64373;46.136;8.830;2023-10-31T03:27:17;0.00;;;0.00;;
75760;SDS011;64373;46.136;8.830;2023-10-31T03:29:43;0.77;;;0.20;;
75760;SDS011;64373;46.136;8.830;2023-10-31T03:32:08;0.00;;;0.00;;
75760;SDS011;64373;46.136;8.830;2023-10-31T03:34:35;1.75;;;0.13;;
75760;SDS011;64373;46.136;8.830;2023-10-31T03:37:00;1.25;;;0.10;;
75760;SDS011;64373;46.136;8.830;2023-10-31T03:39:26;0.10;;;0.10;;
75760;SDS011;64373;46.136;8.830;2023-10-31T03:41:51;0.68;;;0.00;;
75760;SDS011;64373;46.136;8.830;2023-10-31T03:44:18;0.03;;;0.00;;
75760;SDS011;64373;46.136;8.830;2023-10-31T03:46:43;0.00;;;0.00;;
75760;SDS011;64373;46.136;8.830;2023-10-31T03:49:09;0.38;;;0.00;;
75760;SDS011;64373;46.136;8.830;2023-10-31T03:51:34;0.00;;;0.00;;
75760;SDS011;64373;46.136;8.830;2023-10-31T03:54:00;0.73;;;0.10;;
75760;SDS011;64373;46.136;8.830;2023-10-31T03:56:25;0.20;;;0.00;;
75760;SDS011;64373;46.136;8.830;2023-10-31T03:58:51;0.57;;;0.00;;
75760;SDS011;64373;46.136;8.830;2023-10-31T04:01:16;0.00;;;0.00;;
75760;SDS011;64373;46.136;8.830;2023-10-31T04:03:42;0.00;;;0.00;;
75760;SDS011;64373;46.136;8.830;2023-10-31T04:06:08;0.32;;;0.00;;
75760;SDS011;64373;46.136;8.830;2023-10-31T04:08:34;0.30;;;0.00;;
75760;SDS011;64373;46.136;8.830;2023-10-31T04:10:59;0.40;;;0.00;;
75760;SDS011;64373;46.136;8.830;2023-10-31T04:13:25;0.10;;;0.00;;
75760;SDS011;64373;46.136;8.830;2023-10-31T04:15:50;0.15;;;0.00;;
75760;SDS011;64373;46.136;8.830;2023-10-31T04:18:16;0.98;;;0.00;;
75760;SDS011;64373;46.136;8.830;2023-10-31T04:20:42;0.20;;;0.10;;
75760;SDS011;64373;46.136;8.830;2023-10-31T04:23:07;0.10;;;0.00;;
75760;SDS011;64373;46.136;8.830;2023-10-31T04:25:33;0.10;;;0.10;;
75760;SDS011;64373;46.136;8.830;2023-10-31T04:27:59;0.13;;;0.03;;
75760;SDS011;64373;46.136;8.830;2023-10-31T04:30:25;1.15;;;0.08;;
75760;SDS011;64373;46.136;8.830;2023-10-31T04:32:51;0.52;;;0.10;;
75760;SDS011;64373;46.136;8.830;2023-10-31T04:35:17;0.00;;;0.00;;
75760;SDS011;64373;46.136;8.830;2023-10-31T04:37:42;0.10;;;0.00;;
75760;SDS011;64373;46.136;8.830;2023-10-31T04:40:08;0.00;;;0.00;;
75760;SDS011;64373;46.136;8.830;2023-10-31T04:42:35;0.00;;;0.00;;
75760;SDS011;64373;46.136;8.830;2023-10-31T04:45:03;0.00;;;0.00;;
75760;SDS011;64373;46.136;8.830;2023-10-31T04:47:29;0.00;;;0.00;;
75760;SDS011;64373;46.136;8.830;2023-10-31T04:49:55;0.10;;;0.00;;
75760;SDS011;64373;46.136;8.830;2023-10-31T04:52:21;0.10;;;0.00;;
75760;SDS011;64373;46.136;8.830;2023-10-31T04:54:47;0.90;;;0.00;;
75760;SDS011;64373;46.136;8.830;2023-10-31T04:57:13;0.00;;;0.00;;
75760;SDS011;64373;46.136;8.830;2023-10-31T04:59:38;0.50;;;0.10;;
75760;SDS011;64373;46.136;8.830;2023-10-31T05:02:04;0.90;;;0.08;;
75760;SDS011;64373;46.136;8.830;2023-10-31T05:04:29;0.03;;;0.00;;
75760;SDS011;64373;46.136;8.830;2023-10-31T05:06:55;0.57;;;0.03;;
75760;SDS011;64373;46.136;8.830;2023-10-31T05:09:21;0.30;;;0.03;;
75760;SDS011;64373;46.136;8.830;2023-10-31T05:11:48;0.10;;;0.10;;
75760;SDS011;64373;46.136;8.830;2023-10-31T05:14:14;0.00;;;0.00;;
75760;SDS011;64373;46.136;8.830;2023-10-31T05:16:40;0.30;;;0.00;;
75760;SDS011;64373;46.136;8.830;2023-10-31T05:19:06;0.98;;;0.00;;
75760;SDS011;64373;46.136;8.830;2023-10-31T05:21:31;0.00;;;0.00;;
75760;SDS011;64373;46.136;8.830;2023-10-31T05:23:57;0.22;;;0.00;;
75760;SDS011;64373;46.136;8.830;2023-10-31T05:26:23;0.00;;;0.00;;
75760;SDS011;64373;46.136;8.830;2023-10-31T05:28:48;0.43;;;0.10;;
75760;SDS011;64373;46.136;8.830;2023-10-31T05:31:17;0.00;;;0.00;;
75760;SDS011;64373;46.136;8.830;2023-10-31T05:33:43;0.95;;;0.10;;
75760;SDS011;64373;46.136;8.830;2023-10-31T05:36:18;0.10;;;0.10;;
75760;SDS011;64373;46.136;8.830;2023-10-31T05:38:44;0.00;;;0.00;;
75760;SDS011;64373;46.136;8.830;2023-10-31T05:41:10;0.00;;;0.00;;
75760;SDS011;64373;46.136;8.830;2023-10-31T05:43:35;0.00;;;0.00;;
75760;SDS011;64373;46.136;8.830;2023-10-31T05:46:01;0.13;;;0.00;;
75760;SDS011;64373;46.136;8.830;2023-10-31T05:48:26;0.05;;;0.00;;
75760;SDS011;64373;46.136;8.830;2023-10-31T05:50:52;1.10;;;0.00;;
75760;SDS011;64373;46.136;8.830;2023-10-31T05:53:17;0.65;;;0.10;;
75760;SDS011;64373;46.136;8.830;2023-10-31T05:55:43;0.30;;;0.00;;
75760;SDS011;64373;46.136;8.830;2023-10-31T05:58:08;0.00;;;0.00;;
75760;SDS011;64373;46.136;8.830;2023-10-31T06:00:34;1.35;;;0.00;;
75760;SDS011;64373;46.136;8.830;2023-10-31T06:03:00;0.08;;;0.08;;
75760;SDS011;64373;46.136;8.830;2023-10-31T06:05:25;0.10;;;0.00;;
75760;SDS011;64373;46.136;8.830;2023-10-31T06:07:51;0.20;;;0.03;;
75760;SDS011;64373;46.136;8.830;2023-10-31T06:10:17;0.00;;;0.00;;
75760;SDS011;64373;46.136;8.830;2023-10-31T06:12:42;0.32;;;0.10;;
75760;SDS011;64373;46.136;8.830;2023-10-31T06:15:08;1.27;;;0.00;;
75760;SDS011;64373;46.136;8.830;2023-10-31T06:17:34;0.43;;;0.00;;
75760;SDS011;64373;46.136;8.830;2023-10-31T06:20:00;0.00;;;0.00;;
75760;SDS011;64373;46.136;8.830;2023-10-31T06:22:26;0.00;;;0.00;;
75760;SDS011;64373;46.136;8.830;2023-10-31T06:24:52;0.10;;;0.00;;
75760;SDS011;64373;46.136;8.830;2023-10-31T06:27:17;0.20;;;0.17;;
75760;SDS011;64373;46.136;8.830;2023-10-31T06:29:43;0.00;;;0.00;;
75760;SDS011;64373;46.136;8.830;2023-10-31T06:32:08;0.00;;;0.00;;
75760;SDS011;64373;46.136;8.830;2023-10-31T06:34:34;0.00;;;0.00;;
75760;SDS011;64373;46.136;8.830;2023-10-31T06:36:59;0.20;;;0.00;;
75760;SDS011;64373;46.136;8.830;2023-10-31T06:39:25;0.08;;;0.00;;
75760;SDS011;64373;46.136;8.830;2023-10-31T06:41:53;0.00;;;0.00;;
75760;SDS011;64373;46.136;8.830;2023-10-31T06:44:20;0.00;;;0.00;;
75760;SDS011;64373;46.136;8.830;2023-10-31T06:46:45;1.27;;;0.00;;
75760;SDS011;64373;46.136;8.830;2023-10-31T06:49:11;0.00;;;0.00;;
75760;SDS011;64373;46.136;8.830;2023-10-31T06:51:36;0.00;;;0.00;;
75760;SDS011;64373;46.136;8.830;2023-10-31T06:54:02;0.05;;;0.00;;
75760;SDS011;64373;46.136;8.830;2023-10-31T06:56:28;0.43;;;0.08;;
75760;SDS011;64373;46.136;8.830;2023-10-31T06:58:54;0.00;;;0.00;;
75760;SDS011;64373;46.136;8.830;2023-10-31T07:01:19;0.00;;;0.00;;
75760;SDS011;64373;46.136;8.830;2023-10-31T07:03:45;0.10;;;0.03;;
75760;SDS011;64373;46.136;8.830;2023-10-31T07:06:12;0.00;;;0.00;;
75760;SDS011;64373;46.136;8.830;2023-10-31T07:08:37;0.00;;;0.00;;
75760;SDS011;64373;46.136;8.830;2023-10-31T07:11:03;0.30;;;0.00;;
75760;SDS011;64373;46.136;8.830;2023-10-31T07:13:30;0.00;;;0.00;;
75760;SDS011;64373;46.136;8.830;2023-10-31T07:15:55;0.10;;;0.10;;
75760;SDS011;64373;46.136;8.830;2023-10-31T07:18:21;0.05;;;0.00;;
75760;SDS011;64373;46.136;8.830;2023-10-31T07:20:46;0.40;;;0.03;;
75760;SDS011;64373;46.136;8.830;2023-10-31T07:23:12;0.40;;;0.00;;
75760;SDS011;64373;46.136;8.830;2023-10-31T07:25:37;0.00;;;0.00;;
75760;SDS011;64373;46.136;8.830;2023-10-31T07:28:03;0.00;;;0.00;;
75760;SDS011;64373;46.136;8.830;2023-10-31T07:30:28;0.32;;;0.00;;
75760;SDS011;64373;46.136;8.830;2023-10-31T07:32:55;0.05;;;0.00;;
75760;SDS011;64373;46.136;8.830;2023-10-31T07:35:20;0.10;;;0.00;;
75760;SDS011;64373;46.136;8.830;2023-10-31T07:37:46;0.00;;;0.00;;
75760;SDS011;64373;46.136;8.830;2023-10-31T07:40:11;0.30;;;0.00;;
75760;SDS011;64373;46.136;8.830;2023-10-31T07:42:37;0.00;;;0.00;;
75760;SDS011;64373;46.136;8.830;2023-10-31T07:45:03;0.00;;;0.00;;
75760;SDS011;64373;46.136;8.830;2023-10-31T07:47:29;0.20;;;0.05;;
75760;SDS011;64373;46.136;8.830;2023-10-31T07:49:54;0.03;;;0.00;;
75760;SDS011;64373;46.136;8.830;2023-10-31T07:52:20;0.00;;;0.00;;
75760;SDS011;64373;46.136;8.830;2023-10-31T07:54:45;0.00;;;0.00;;
75760;SDS011;64373;46.136;8.830;2023-10-31T07:57:11;0.00;;;0.00;;
75760;SDS011;64373;46.136;8.830;2023-10-31T07:59:36;0.00;;;0.00;;
75760;SDS011;64373;46.136;8.830;2023-10-31T08:02:02;0.40;;;0.00;;
75760;SDS011;64373;46.136;8.830;2023-10-31T08:04:28;0.80;;;0.00;;
75760;SDS011;64373;46.136;8.830;2023-10-31T08:06:55;0.00;;;0.00;;
75760;SDS011;64373;46.136;8.830;2023-10-31T08:09:20;0.03;;;0.00;;
75760;SDS011;64373;46.136;8.830;2023-10-31T08:11:46;0.00;;;0.00;;
75760;SDS011;64373;46.136;8.830;2023-10-31T08:14:11;1.77;;;0.00;;
75760;SDS011;64373;46.136;8.830;2023-10-31T08:16:37;0.25;;;0.05;;
75760;SDS011;64373;46.136;8.830;2023-10-31T08:19:02;0.00;;;0.00;;
75760;SDS011;64373;46.136;8.830;2023-10-31T08:21:28;0.05;;;0.03;;
75760;SDS011;64373;46.136;8.830;2023-10-31T08:23:59;1.17;;;0.00;;
75760;SDS011;64373;46.136;8.830;2023-10-31T08:26:25;0.10;;;0.00;;
75760;SDS011;64373;46.136;8.830;2023-10-31T08:28:50;0.70;;;0.30;;
75760;SDS011;64373;46.136;8.830;2023-10-31T08:31:16;0.10;;;0.08;;
75760;SDS011;64373;46.136;8.830;2023-10-31T08:33:42;0.08;;;0.00;;
75760;SDS011;64373;46.136;8.830;2023-10-31T08:36:08;0.25;;;0.10;;
75760;SDS011;64373;46.136;8.830;2023-10-31T08:38:34;0.20;;;0.10;;
75760;SDS011;64373;46.136;8.830;2023-10-31T08:40:59;0.32;;;0.13;;
75760;SDS011;64373;46.136;8.830;2023-10-31T08:43:25;2.67;;;0.43;;
75760;SDS011;64373;46.136;8.830;2023-10-31T08:45:58;0.40;;;0.30;;
75760;SDS011;64373;46.136;8.830;2023-10-31T08:48:27;0.65;;;0.15;;
75760;SDS011;64373;46.136;8.830;2023-10-31T08:50:52;0.22;;;0.20;;
75760;SDS011;64373;46.136;8.830;2023-10-31T08:53:22;0.20;;;0.20;;
75760;SDS011;64373;46.136;8.830;2023-10-31T08:55:53;0.20;;;0.20;;
75760;SDS011;64373;46.136;8.830;2023-10-31T08:58:19;1.40;;;0.50;;
75760;SDS011;64373;46.136;8.830;2023-10-31T09:00:46;2.78;;;1.17;;
75760;SDS011;64373;46.136;8.830;2023-10-31T09:03:27;0.30;;;0.20;;
75760;SDS011;64373;46.136;8.830;2023-10-31T09:06:01;0.30;;;0.10;;
75760;SDS011;64373;46.136;8.830;2023-10-31T09:08:28;0.63;;;0.10;;
75760;SDS011;64373;46.136;8.830;2023-10-31T09:10:53;0.30;;;0.10;;
75760;SDS011;64373;46.136;8.830;2023-10-31T09:13:19;0.28;;;0.10;;
75760;SDS011;64373;46.136;8.830;2023-10-31T09:15:45;0.20;;;0.20;;
75760;SDS011;64373;46.136;8.830;2023-10-31T09:18:11;0.45;;;0.20;;
75760;SDS011;64373;46.136;8.830;2023-10-31T09:20:36;3.75;;;0.80;;
75760;SDS011;64373;46.136;8.830;2023-10-31T09:23:02;1.17;;;0.65;;
75760;SDS011;64373;46.136;8.830;2023-10-31T09:25:27;0.90;;;0.60;;
75760;SDS011;64373;46.136;8.830;2023-10-31T09:27:54;0.98;;;0.40;;
75760;SDS011;64373;46.136;8.830;2023-10-31T09:30:19;1.70;;;0.50;;
75760;SDS011;64373;46.136;8.830;2023-10-31T09:32:45;1.98;;;0.40;;
75760;SDS011;64373;46.136;8.830;2023-10-31T09:35:10;1.27;;;0.50;;
75760;SDS011;64373;46.136;8.830;2023-10-31T09:37:36;1.02;;;0.57;;
75760;SDS011;64373;46.136;8.830;2023-10-31T09:40:01;0.30;;;0.28;;
75760;SDS011;64373;46.136;8.830;2023-10-31T09:42:27;0.95;;;0.30;;
75760;SDS011;64373;46.136;8.830;2023-10-31T09:44:52;1.80;;;0.40;;
75760;SDS011;64373;46.136;8.830;2023-10-31T09:47:18;0.20;;;0.20;;
75760;SDS011;64373;46.136;8.830;2023-10-31T09:49:46;1.08;;;0.50;;
75760;SDS011;64373;46.136;8.830;2023-10-31T09:52:12;0.20;;;0.15;;
75760;SDS011;64373;46.136;8.830;2023-10-31T09:54:38;0.80;;;0.40;;
75760;SDS011;64373;46.136;8.830;2023-10-31T09:57:04;0.32;;;0.20;;
75760;SDS011;64373;46.136;8.830;2023-10-31T09:59:30;0.38;;;0.30;;
75760;SDS011;64373;46.136;8.830;2023-10-31T10:01:56;0.88;;;0.40;;
75760;SDS011;64373;46.136;8.830;2023-10-31T10:04:22;0.60;;;0.30;;
75760;SDS011;64373;46.136;8.830;2023-10-31T10:06:51;0.20;;;0.20;;
75760;SDS011;64373;46.136;8.830;2023-10-31T10:09:17;0.40;;;0.20;;
75760;SDS011;64373;46.136;8.830;2023-10-31T10:11:43;0.40;;;0.30;;
75760;SDS011;64373;46.136;8.830;2023-10-31T10:14:09;0.38;;;0.30;;
75760;SDS011;64373;46.136;8.830;2023-10-31T10:16:37;1.27;;;0.50;;
75760;SDS011;64373;46.136;8.830;2023-10-31T10:19:16;0.30;;;0.20;;
75760;SDS011;64373;46.136;8.830;2023-10-31T10:21:47;0.50;;;0.13;;
75760;SDS011;64373;46.136;8.830;2023-10-31T10:24:17;0.10;;;0.03;;
75760;SDS011;64373;46.136;8.830;2023-10-31T10:26:44;0.98;;;0.20;;
75760;SDS011;64373;46.136;8.830;2023-10-31T10:29:10;0.17;;;0.10;;
75760;SDS011;64373;46.136;8.830;2023-10-31T10:31:35;1.45;;;0.20;;
75760;SDS011;64373;46.136;8.830;2023-10-31T10:34:01;1.02;;;0.30;;
75760;SDS011;64373;46.136;8.830;2023-10-31T10:36:26;0.73;;;0.40;;
75760;SDS011;64373;46.136;8.830;2023-10-31T10:38:53;0.20;;;0.20;;
75760;SDS011;64373;46.136;8.830;2023-10-31T10:41:25;0.10;;;0.10;;
75760;SDS011;64373;46.136;8.830;2023-10-31T10:44:10;1.52;;;0.22;;
75760;SDS011;64373;46.136;8.830;2023-10-31T10:46:36;0.30;;;0.20;;
75760;SDS011;64373;46.136;8.830;2023-10-31T10:49:04;0.30;;;0.30;;
75760;SDS011;64373;46.136;8.830;2023-10-31T10:51:45;0.70;;;0.20;;
75760;SDS011;64373;46.136;8.830;2023-10-31T10:54:19;0.10;;;0.10;;
75760;SDS011;64373;46.136;8.830;2023-10-31T10:57:07;1.17;;;0.28;;
75760;SDS011;64373;46.136;8.830;2023-10-31T10:59:45;1.02;;;0.30;;
75760;SDS011;64373;46.136;8.830;2023-10-31T11:02:17;1.25;;;0.15;;
75760;SDS011;64373;46.136;8.830;2023-10-31T11:04:43;0.85;;;0.20;;
75760;SDS011;64373;46.136;8.830;2023-10-31T11:07:09;0.90;;;0.22;;
75760;SDS011;64373;46.136;8.830;2023-10-31T11:09:35;0.70;;;0.30;;
75760;SDS011;64373;46.136;8.830;2023-10-31T11:12:01;0.40;;;0.40;;
75760;SDS011;64373;46.136;8.830;2023-10-31T11:14:28;0.32;;;0.20;;
75760;SDS011;64373;46.136;8.830;2023-10-31T11:16:55;0.47;;;0.30;;
75760;SDS011;64373;46.136;8.830;2023-10-31T11:19:25;1.75;;;0.30;;
75760;SDS011;64373;46.136;8.830;2023-10-31T11:21:57;0.45;;;0.20;;
75760;SDS011;64373;46.136;8.830;2023-10-31T11:24:23;1.00;;;0.20;;
75760;SDS011;64373;46.136;8.830;2023-10-31T11:26:53;0.38;;;0.10;;
75760;SDS011;64373;46.136;8.830;2023-10-31T11:29:20;0.40;;;0.17;;
75760;SDS011;64373;46.136;8.830;2023-10-31T11:31:46;0.20;;;0.20;;
75760;SDS011;64373;46.136;8.830;2023-10-31T11:34:12;0.20;;;0.10;;
75760;SDS011;64373;46.136;8.830;2023-10-31T11:36:38;0.98;;;0.40;;
75760;SDS011;64373;46.136;8.830;2023-10-31T11:39:10;2.72;;;0.52;;
75760;SDS011;64373;46.136;8.830;2023-10-31T11:41:39;0.10;;;0.10;;
75760;SDS011;64373;46.136;8.830;2023-10-31T11:44:05;0.10;;;0.10;;
75760;SDS011;64373;46.136;8.830;2023-10-31T11:46:31;0.50;;;0.10;;
75760;SDS011;64373;46.136;8.830;2023-10-31T11:48:57;0.30;;;0.20;;
75760;SDS011;64373;46.136;8.830;2023-10-31T11:51:26;0.90;;;0.22;;
75760;SDS011;64373;46.136;8.830;2023-10-31T11:53:51;0.38;;;0.15;;
75760;SDS011;64373;46.136;8.830;2023-10-31T11:56:17;0.55;;;0.10;;
75760;SDS011;64373;46.136;8.830;2023-10-31T11:58:44;0.00;;;0.00;;
75760;SDS011;64373;46.136;8.830;2023-10-31T12:01:10;0.75;;;0.20;;
75760;SDS011;64373;46.136;8.830;2023-10-31T12:03:45;0.73;;;0.20;;
75760;SDS011;64373;46.136;8.830;2023-10-31T12:06:13;0.10;;;0.10;;
75760;SDS011;64373;46.136;8.830;2023-10-31T12:08:40;0.10;;;0.10;;
75760;SDS011;64373;46.136;8.830;2023-10-31T12:13:32;0.30;;;0.15;;
75760;SDS011;64373;46.136;8.830;2023-10-31T12:15:59;0.88;;;0.17;;
75760;SDS011;64373;46.136;8.830;2023-10-31T12:18:27;1.00;;;0.20;;
75760;SDS011;64373;46.136;8.830;2023-10-31T12:20:53;0.20;;;0.20;;
75760;SDS011;64373;46.136;8.830;2023-10-31T12:23:18;0.20;;;0.13;;
75760;SDS011;64373;46.136;8.830;2023-10-31T12:25:47;0.20;;;0.10;;
75760;SDS011;64373;46.136;8.830;2023-10-31T12:28:22;1.13;;;0.20;;
75760;SDS011;64373;46.136;8.830;2023-10-31T12:30:49;0.03;;;0.03;;
75760;SDS011;64373;46.136;8.830;2023-10-31T12:33:16;1.30;;;0.43;;
75760;SDS011;64373;46.136;8.830;2023-10-31T12:35:42;0.20;;;0.10;;
75760;SDS011;64373;46.136;8.830;2023-10-31T12:38:12;0.45;;;0.22;;
75760;SDS011;64373;46.136;8.830;2023-10-31T12:40:39;0.25;;;0.10;;
75760;SDS011;64373;46.136;8.830;2023-10-31T12:43:05;0.10;;;0.10;;
75760;SDS011;64373;46.136;8.830;2023-10-31T12:45:31;1.10;;;0.10;;
75760;SDS011;64373;46.136;8.830;2023-10-31T12:48:04;0.20;;;0.13;;
75760;SDS011;64373;46.136;8.830;2023-10-31T12:50:32;0.10;;;0.10;;
75760;SDS011;64373;46.136;8.830;2023-10-31T12:52:58;1.75;;;0.00;;
75760;SDS011;64373;46.136;8.830;2023-10-31T12:55:25;0.25;;;0.10;;
75760;SDS011;64373;46.136;8.830;2023-10-31T12:57:52;0.63;;;0.10;;
75760;SDS011;64373;46.136;8.830;2023-10-31T13:00:19;0.08;;;0.00;;
75760;SDS011;64373;46.136;8.830;2023-10-31T13:02:52;0.15;;;0.10;;
75760;SDS011;64373;46.136;8.830;2023-10-31T13:05:25;0.22;;;0.10;;
75760;SDS011;64373;46.136;8.830;2023-10-31T13:07:51;3.60;;;0.17;;
75760;SDS011;64373;46.136;8.830;2023-10-31T13:10:19;0.20;;;0.00;;
75760;SDS011;64373;46.136;8.830;2023-10-31T13:12:45;0.00;;;0.00;;
75760;SDS011;64373;46.136;8.830;2023-10-31T13:15:18;0.00;;;0.00;;
75760;SDS011;64373;46.136;8.830;2023-10-31T13:17:45;0.00;;;0.00;;
75760;SDS011;64373;46.136;8.830;2023-10-31T13:20:11;0.08;;;0.08;;
75760;SDS011;64373;46.136;8.830;2023-10-31T13:22:39;1.75;;;0.10;;
75760;SDS011;64373;46.136;8.830;2023-10-31T13:25:06;0.20;;;0.10;;
75760;SDS011;64373;46.136;8.830;2023-10-31T13:27:35;1.75;;;0.28;;
75760;SDS011;64373;46.136;8.830;2023-10-31T13:30:01;0.43;;;0.17;;
75760;SDS011;64373;46.136;8.830;2023-10-31T13:32:27;0.20;;;0.00;;
75760;SDS011;64373;46.136;8.830;2023-10-31T13:34:52;0.20;;;0.10;;
75760;SDS011;64373;46.136;8.830;2023-10-31T13:37:18;0.00;;;0.00;;
75760;SDS011;64373;46.136;8.830;2023-10-31T13:39:44;0.05;;;0.00;;
75760;SDS011;64373;46.136;8.830;2023-10-31T13:42:09;0.00;;;0.00;;
75760;SDS011;64373;46.136;8.830;2023-10-31T13:44:39;0.00;;;0.00;;
75760;SDS011;64373;46.136;8.830;2023-10-31T13:47:05;0.00;;;0.00;;
75760;SDS011;64373;46.136;8.830;2023-10-31T13:49:31;0.20;;;0.10;;
75760;SDS011;64373;46.136;8.830;2023-10-31T13:51:56;0.85;;;0.15;;
75760;SDS011;64373;46.136;8.830;2023-10-31T13:54:22;0.73;;;0.25;;
75760;SDS011;64373;46.136;8.830;2023-10-31T13:56:48;0.47;;;0.10;;
75760;SDS011;64373;46.136;8.830;2023-10-31T13:59:13;0.10;;;0.10;;
75760;SDS011;64373;46.136;8.830;2023-10-31T14:01:39;0.00;;;0.00;;
75760;SDS011;64373;46.136;8.830;2023-10-31T14:04:06;0.13;;;0.00;;
75760;SDS011;64373;46.136;8.830;2023-10-31T14:06:33;0.20;;;0.10;;
75760;SDS011;64373;46.136;8.830;2023-10-31T14:08:59;1.45;;;0.17;;
75760;SDS011;64373;46.136;8.830;2023-10-31T14:11:25;0.20;;;0.00;;
75760;SDS011;64373;46.136;8.830;2023-10-31T14:13:51;0.00;;;0.00;;
75760;SDS011;64373;46.136;8.830;2023-10-31T14:16:17;0.80;;;0.10;;
75760;SDS011;64373;46.136;8.830;2023-10-31T14:18:43;0.50;;;0.10;;
75760;SDS011;64373;46.136;8.830;2023-10-31T14:21:11;0.00;;;0.00;;
75760;SDS011;64373;46.136;8.830;2023-10-31T14:23:36;0.00;;;0.00;;
75760;SDS011;64373;46.136;8.830;2023-10-31T14:26:02;0.20;;;0.10;;
75760;SDS011;64373;46.136;8.830;2023-10-31T14:28:28;0.40;;;0.05;;
75760;SDS011;64373;46.136;8.830;2023-10-31T14:30:53;3.72;;;0.25;;
75760;SDS011;64373;46.136;8.830;2023-10-31T14:33:19;0.20;;;0.10;;
75760;SDS011;64373;46.136;8.830;2023-10-31T14:35:44;1.90;;;0.20;;
75760;SDS011;64373;46.136;8.830;2023-10-31T14:38:10;3.45;;;0.30;;
75760;SDS011;64373;46.136;8.830;2023-10-31T14:40:36;1.85;;;0.10;;
75760;SDS011;64373;46.136;8.830;2023-10-31T14:43:01;1.10;;;0.20;;
75760;SDS011;64373;46.136;8.830;2023-10-31T14:45:27;0.30;;;0.10;;